Jamaica, NY

1:51 AM EDT on May 02, 2016 (GMT -0400)
Saint Albans | | Change Station

Elev 46 ft 40.69 °N, 73.75 °W | Updated 25 seconds ago

Overcast
Overcast
51.6 °F
Feels Like 51.6 °F
N
1.3
Wind Variable Wind from East
Gusts 2.5 mph

Today
High -- | Low -- °F
--% Chance of Precip.
Yesterday
High -- | Low -- °F
Precip. -- in
Pressure 30.08 in
Visibility 3.0 miles
Clouds Mostly Cloudy 400 ft
Overcast 1000 ft
Dew Point 51 °F
Humidity 98%
Rainfall in
Snow Depth Not available.
5:51 AM 7:52 PM
Waning Crescent, 28% visible
METAR KJFK 020451Z 02005KT 3SM -DZ BR BKN004 OVC010 08/06 A3008 RMK AO2 SLP186 P0000 T00780061 401000072 $
Pressure 30.08 in
Visibility 3.0 miles
Clouds Mostly Cloudy 400 ft
Overcast 1000 ft
Dew Point 51 °F
Humidity 98%
Rainfall in
Snow Depth Not available.
5:51 AM 7:52 PM
Waning Crescent, 28% visible
METAR KJFK 020451Z 02005KT 3SM -DZ BR BKN004 OVC010 08/06 A3008 RMK AO2 SLP186 P0000 T00780061 401000072 $

10-Day Weather Forecast

Almanac

Astronomy

May. 02, 2016 Rise Set
Actual Time
Civil Twilight
Nautical Twilight
Astronomical Twilight
Moon
Length of Visible Light
Length of Day
Tomorrow will be .
, % of the Moon is Illuminated

Today's Extremes

State Highs State Lows

Community

WunderPhotos

Upload Photos

1,909,362 photos uploaded!

WunderBlog® & News

Nearby

Air Quality

  Air Quality AQ Index Pollutant
Not available.

Snow Depth

Station Depth Elevation

Earthquake Activity

City Distance Mag. Time & Date
Minimum magnitude displayed is 2.5.

Coastal Water Temperatures

Place Temperature

Stations

Nearby Weather Stations

Station Location Temp. Windchill Dew Point Humidity Wind Precip. Elev Updated Type
                   

Watches & Warnings

There are currently no watches in effect.